Time;durP1;ratioP1;P1;durP2;ratioP2;P2;SDS_P1;SDS_P2;PMS_P1;PMS_P2;Temp;Humidity;BMP_temperature;BMP_pressure;BME280_temperature;BME280_humidity;BME280_pressure;Samples;Min_cycle;Max_cycle;Signal;HPM_P1;HPM_P2
2020/12/06 00:01:48;;;;;;;34.07;27.63;;;;;;;;;;5052605;28;20364;-85
2020/12/06 00:04:19;;;;;;;32.45;27.15;;;;;;;;;;5051362;28;20394;-84
2020/12/06 00:06:45;;;;;;;32.22;27.55;;;;;;;;;;5041680;28;20378;-87
2020/12/06 00:09:11;;;;;;;34.30;29.00;;;;;;;;;;5037201;28;20371;-84
2020/12/06 00:11:38;;;;;;;31.73;27.17;;;;;;;;;;5068331;28;20447;-84
2020/12/06 00:14:04;;;;;;;32.13;26.48;;;;;;;;;;5063993;28;20372;-83
2020/12/06 00:16:30;;;;;;;30.58;26.60;;;;;;;;;;5050777;28;20366;-83
2020/12/06 00:18:58;;;;;;;33.13;27.95;;;;;;;;;;5069050;28;20478;-84
2020/12/06 00:21:24;;;;;;;32.07;27.97;;;;;;;;;;5055670;28;20457;-84
2020/12/06 00:23:50;;;;;;;32.25;27.20;;;;;;;;;;5042265;28;20900;-86
2020/12/06 00:26:20;;;;;;;33.77;27.77;;;;;;;;;;5036897;28;20421;-85
2020/12/06 00:28:47;;;;;;;33.22;27.73;;;;;;;;;;5063961;28;20389;-84
2020/12/06 00:31:13;;;;;;;31.00;27.55;;;;;;;;;;5063711;28;20367;-84
2020/12/06 00:33:39;;;;;;;33.08;27.85;;;;;;;;;;5036445;28;20372;-84
2020/12/06 00:36:05;;;;;;;32.92;27.52;;;;;;;;;;5059799;28;21215;-84
2020/12/06 00:38:31;;;;;;;31.63;27.20;;;;;;;;;;5042507;28;20433;-83
2020/12/06 00:40:57;;;;;;;30.95;26.35;;;;;;;;;;5037236;28;20368;-84
2020/12/06 00:43:23;;;;;;;31.17;25.95;;;;;;;;;;5048612;28;20874;-83
2020/12/06 00:45:49;;;;;;;33.10;28.00;;;;;;;;;;5049762;28;20408;-84
2020/12/06 00:48:15;;;;;;;31.42;26.30;;;;;;;;;;5044042;28;20384;-84
2020/12/06 00:50:41;;;;;;;31.02;26.33;;;;;;;;;;5039468;28;20372;-84
2020/12/06 00:53:07;;;;;;;31.90;26.55;;;;;;;;;;5057504;28;20446;-83
2020/12/06 00:55:33;;;;;;;31.85;26.90;;;;;;;;;;5056357;28;20393;-82
2020/12/06 00:58:00;;;;;;;31.33;26.27;;;;;;;;;;5057978;28;20371;-86
2020/12/06 01:00:26;;;;;;;33.00;26.50;;;;;;;;;;5059118;28;20375;-84
2020/12/06 01:02:52;;;;;;;34.37;28.00;;;;;;;;;;5058740;28;20917;-84
2020/12/06 01:05:18;;;;;;;33.92;27.63;;;;;;;;;;5047426;28;20441;-84
2020/12/06 01:07:44;;;;;;;32.88;27.15;;;;;;;;;;5055749;28;20374;-84
2020/12/06 01:10:10;;;;;;;31.42;26.73;;;;;;;;;;5073490;28;20358;-83
2020/12/06 01:12:37;;;;;;;32.75;26.90;;;;;;;;;;5055902;28;20377;-85
2020/12/06 01:15:04;;;;;;;32.13;27.63;;;;;;;;;;5053025;28;20374;-84
2020/12/06 01:17:30;;;;;;;33.05;27.85;;;;;;;;;;5053366;28;20469;-84
2020/12/06 01:19:56;;;;;;;34.85;28.38;;;;;;;;;;5055630;28;21080;-84
2020/12/06 01:22:22;;;;;;;33.72;28.27;;;;;;;;;;5055555;28;20376;-83
2020/12/06 01:24:48;;;;;;;33.13;28.20;;;;;;;;;;5073628;28;20851;-84
2020/12/06 01:27:15;;;;;;;33.40;28.27;;;;;;;;;;5055589;28;20362;-84
2020/12/06 01:29:41;;;;;;;35.40;28.80;;;;;;;;;;5055527;28;20359;-84
2020/12/06 01:32:07;;;;;;;37.50;29.35;;;;;;;;;;5073762;28;20351;-83
2020/12/06 01:34:33;;;;;;;37.45;29.92;;;;;;;;;;5073229;28;20370;-83
2020/12/06 01:36:59;;;;;;;33.95;28.75;;;;;;;;;;5055596;28;20393;-83
2020/12/06 01:39:25;;;;;;;35.37;29.23;;;;;;;;;;5055374;28;20750;-84
2020/12/06 01:41:55;;;;;;;35.20;29.52;;;;;;;;;;5073091;28;20361;-84
2020/12/06 01:44:21;;;;;;;36.28;29.80;;;;;;;;;;5072560;28;20493;-83
2020/12/06 01:46:49;;;;;;;36.40;30.17;;;;;;;;;;5055158;28;20404;-84
2020/12/06 01:49:15;;;;;;;36.40;30.33;;;;;;;;;;5072912;28;20358;-83
2020/12/06 01:51:41;;;;;;;38.60;31.48;;;;;;;;;;5055436;28;20362;-84
2020/12/06 01:54:07;;;;;;;37.80;31.90;;;;;;;;;;5072843;28;20419;-84
2020/12/06 01:56:33;;;;;;;39.17;32.65;;;;;;;;;;5055178;28;20370;-83
2020/12/06 01:58:59;;;;;;;38.72;32.15;;;;;;;;;;5054864;28;20374;-84
2020/12/06 02:01:25;;;;;;;38.95;33.17;;;;;;;;;;5054961;28;20382;-83
2020/12/06 02:03:53;;;;;;;42.23;34.30;;;;;;;;;;5054762;28;20508;-83
2020/12/06 02:06:19;;;;;;;40.35;33.35;;;;;;;;;;5054751;28;20396;-83
2020/12/06 02:08:47;;;;;;;41.50;33.28;;;;;;;;;;5072484;28;20512;-83
2020/12/06 02:11:27;;;;;;;42.72;34.15;;;;;;;;;;5054696;28;20419;-83
2020/12/06 02:13:53;;;;;;;42.88;35.10;;;;;;;;;;5072454;28;20419;-83
2020/12/06 02:16:19;;;;;;;40.83;33.90;;;;;;;;;;5073292;28;20366;-83
2020/12/06 02:18:45;;;;;;;40.25;33.50;;;;;;;;;;5054729;28;20416;-84
2020/12/06 02:21:11;;;;;;;43.53;34.40;;;;;;;;;;5073401;28;20390;-84
2020/12/06 02:23:37;;;;;;;42.08;34.67;;;;;;;;;;5054633;28;20402;-83
2020/12/06 02:26:03;;;;;;;40.70;33.60;;;;;;;;;;5054566;28;20453;-84
2020/12/06 02:28:29;;;;;;;42.65;34.13;;;;;;;;;;5072601;28;20393;-83
2020/12/06 02:30:55;;;;;;;44.58;35.95;;;;;;;;;;5072164;28;20366;-84
2020/12/06 02:33:21;;;;;;;44.47;36.55;;;;;;;;;;5054677;28;20389;-85
2020/12/06 02:35:47;;;;;;;43.80;36.13;;;;;;;;;;5054693;28;20390;-83
2020/12/06 02:38:13;;;;;;;43.90;36.30;;;;;;;;;;5072401;28;20401;-84
2020/12/06 02:40:39;;;;;;;41.45;35.55;;;;;;;;;;5054475;28;20362;-83
2020/12/06 02:43:05;;;;;;;44.72;36.67;;;;;;;;;;5072089;28;20367;-84
2020/12/06 02:45:31;;;;;;;40.92;33.72;;;;;;;;;;5072458;28;20463;-85
2020/12/06 02:47:57;;;;;;;45.47;36.97;;;;;;;;;;5054154;28;20402;-84
2020/12/06 02:50:23;;;;;;;45.97;37.53;;;;;;;;;;5054023;28;20375;-83
2020/12/06 02:52:51;;;;;;;44.58;37.13;;;;;;;;;;5054626;28;20367;-83
2020/12/06 02:55:17;;;;;;;45.35;36.83;;;;;;;;;;5056607;28;20844;-83
2020/12/06 02:57:43;;;;;;;45.47;36.03;;;;;;;;;;5076179;28;20413;-83
2020/12/06 03:00:09;;;;;;;45.17;37.55;;;;;;;;;;5057997;28;20370;-83
2020/12/06 03:02:35;;;;;;;47.53;37.63;;;;;;;;;;5058599;28;20370;-83
2020/12/06 03:05:01;;;;;;;45.93;36.57;;;;;;;;;;5058094;28;20398;-84
2020/12/06 03:07:27;;;;;;;50.65;40.38;;;;;;;;;;5058180;28;20721;-83
2020/12/06 03:09:53;;;;;;;50.03;40.30;;;;;;;;;;5057842;28;20397;-85
2020/12/06 03:12:19;;;;;;;45.60;37.88;;;;;;;;;;5058072;28;20728;-83
2020/12/06 03:14:45;;;;;;;48.95;40.15;;;;;;;;;;5058705;28;20378;-84
2020/12/06 03:17:11;;;;;;;49.75;40.53;;;;;;;;;;5076246;28;20753;-83
2020/12/06 03:19:37;;;;;;;50.15;41.33;;;;;;;;;;5058028;28;20402;-83
2020/12/06 03:22:03;;;;;;;49.05;39.83;;;;;;;;;;5058238;28;20401;-84
2020/12/06 03:24:29;;;;;;;50.50;40.38;;;;;;;;;;5075740;28;20931;-83
2020/12/06 03:26:55;;;;;;;50.15;40.28;;;;;;;;;;5058217;28;20456;-83
2020/12/06 03:29:21;;;;;;;48.10;38.88;;;;;;;;;;5075445;28;20856;-83
2020/12/06 03:31:47;;;;;;;51.45;42.28;;;;;;;;;;5058430;28;20400;-83
2020/12/06 03:34:13;;;;;;;51.30;41.50;;;;;;;;;;5058524;28;20940;-83
2020/12/06 03:36:39;;;;;;;52.10;40.67;;;;;;;;;;5063364;28;20368;-83
2020/12/06 03:39:05;;;;;;;49.33;38.65;;;;;;;;;;5061198;28;20403;-84
2020/12/06 03:41:31;;;;;;;51.70;41.50;;;;;;;;;;5058059;28;20438;-83
2020/12/06 03:43:57;;;;;;;48.20;39.13;;;;;;;;;;5057806;28;20398;-83
2020/12/06 03:46:23;;;;;;;49.85;40.80;;;;;;;;;;5075573;28;20378;-83
2020/12/06 03:48:49;;;;;;;48.63;40.40;;;;;;;;;;5057669;28;20372;-83
2020/12/06 03:51:15;;;;;;;43.43;36.30;;;;;;;;;;5057591;28;20402;-83
2020/12/06 03:53:41;;;;;;;47.65;39.72;;;;;;;;;;5058341;28;20427;-83
2020/12/06 03:56:07;;;;;;;50.35;40.22;;;;;;;;;;5060004;28;20367;-83
2020/12/06 03:58:33;;;;;;;47.75;39.50;;;;;;;;;;5058443;28;20868;-83
2020/12/06 04:00:59;;;;;;;51.03;39.67;;;;;;;;;;5075201;28;20358;-83
2020/12/06 04:03:25;;;;;;;47.65;38.30;;;;;;;;;;5075139;28;20437;-83
2020/12/06 04:05:51;;;;;;;49.37;38.30;;;;;;;;;;5056567;28;20447;-83
2020/12/06 04:08:18;;;;;;;51.53;40.20;;;;;;;;;;5057251;28;20366;-83
2020/12/06 04:10:44;;;;;;;47.60;38.55;;;;;;;;;;5057519;28;20371;-83
2020/12/06 04:13:10;;;;;;;52.37;40.93;;;;;;;;;;5057319;28;20451;-84
2020/12/06 04:15:36;;;;;;;47.17;38.17;;;;;;;;;;5056903;28;20884;-83
2020/12/06 04:18:02;;;;;;;45.45;36.10;;;;;;;;;;5074326;28;20362;-84
2020/12/06 04:20:28;;;;;;;49.08;39.63;;;;;;;;;;5055989;28;20385;-83
2020/12/06 04:22:54;;;;;;;47.08;38.35;;;;;;;;;;5056324;28;20516;-83
2020/12/06 04:25:20;;;;;;;48.35;38.28;;;;;;;;;;5056905;28;20943;-83
2020/12/06 04:27:46;;;;;;;47.42;38.70;;;;;;;;;;5057286;28;20852;-84
2020/12/06 04:30:12;;;;;;;44.50;37.70;;;;;;;;;;5075031;28;20362;-84
2020/12/06 04:32:38;;;;;;;49.97;39.50;;;;;;;;;;5057789;28;20766;-84
2020/12/06 04:35:04;;;;;;;47.35;37.50;;;;;;;;;;5056575;28;20382;-85
2020/12/06 04:37:30;;;;;;;45.30;37.08;;;;;;;;;;5055678;28;20733;-83
2020/12/06 04:39:56;;;;;;;47.25;39.20;;;;;;;;;;5056381;28;20370;-84
2020/12/06 04:42:23;;;;;;;47.50;38.75;;;;;;;;;;5075124;28;20354;-83
2020/12/06 04:44:49;;;;;;;45.55;37.47;;;;;;;;;;5075259;28;20394;-84
2020/12/06 04:47:19;;;;;;;51.33;40.25;;;;;;;;;;5057083;28;20724;-84
2020/12/06 04:49:51;;;;;;;53.42;41.15;;;;;;;;;;5055401;28;20378;-84
2020/12/06 04:52:18;;;;;;;51.15;41.83;;;;;;;;;;5056524;28;20382;-83
2020/12/06 04:54:50;;;;;;;53.33;41.08;;;;;;;;;;5074491;28;20358;-83
2020/12/06 04:57:18;;;;;;;50.28;40.35;;;;;;;;;;5056731;28;20906;-84
2020/12/06 04:59:46;;;;;;;52.63;42.05;;;;;;;;;;5056324;28;20733;-83
2020/12/06 05:02:13;;;;;;;51.75;40.50;;;;;;;;;;5074915;28;20358;-83
2020/12/06 05:04:41;;;;;;;56.15;43.25;;;;;;;;;;5056210;28;20481;-83
2020/12/06 05:07:07;;;;;;;53.30;42.90;;;;;;;;;;5055948;28;20377;-83
2020/12/06 05:09:35;;;;;;;55.15;43.47;;;;;;;;;;5055773;28;20358;-83
2020/12/06 05:12:02;;;;;;;53.90;42.03;;;;;;;;;;5074222;28;20363;-83
2020/12/06 05:14:28;;;;;;;54.67;44.10;;;;;;;;;;5056738;28;20359;-83
2020/12/06 05:16:55;;;;;;;55.92;43.38;;;;;;;;;;5056111;28;20907;-83
2020/12/06 05:19:23;;;;;;;53.80;41.90;;;;;;;;;;5072649;28;20392;-83
2020/12/06 05:21:50;;;;;;;55.47;44.03;;;;;;;;;;5055809;28;20459;-85
2020/12/06 05:24:16;;;;;;;51.75;41.20;;;;;;;;;;5056618;28;20402;-84
2020/12/06 05:26:42;;;;;;;56.97;43.67;;;;;;;;;;5055871;28;20537;-84
2020/12/06 05:29:08;;;;;;;51.50;41.72;;;;;;;;;;5055663;28;21172;-89
2020/12/06 05:31:34;;;;;;;55.72;42.47;;;;;;;;;;5055892;28;20479;-84
2020/12/06 05:34:00;;;;;;;51.67;42.03;;;;;;;;;;5055679;28;20469;-85
2020/12/06 05:36:26;;;;;;;55.40;43.50;;;;;;;;;;5074029;28;20409;-83
2020/12/06 05:38:52;;;;;;;52.00;41.72;;;;;;;;;;5055633;28;20370;-83
2020/12/06 05:41:18;;;;;;;56.00;42.83;;;;;;;;;;5055679;28;20365;-82
2020/12/06 05:43:44;;;;;;;55.33;42.38;;;;;;;;;;5058454;28;20704;-84
2020/12/06 05:46:14;;;;;;;54.58;41.72;;;;;;;;;;5073402;28;20358;-82
2020/12/06 05:48:41;;;;;;;53.88;41.17;;;;;;;;;;5055566;28;20369;-83
2020/12/06 05:51:07;;;;;;;54.00;42.70;;;;;;;;;;5055388;28;20690;-83
2020/12/06 05:53:34;;;;;;;55.67;43.13;;;;;;;;;;5055445;28;20377;-82
2020/12/06 05:56:04;;;;;;;51.92;41.60;;;;;;;;;;5055304;28;20377;-82
2020/12/06 05:58:32;;;;;;;50.75;40.05;;;;;;;;;;5055455;28;20871;-83
2020/12/06 06:00:58;;;;;;;53.28;41.22;;;;;;;;;;5058989;28;20381;-82
2020/12/06 06:03:28;;;;;;;50.53;40.50;;;;;;;;;;5054655;28;20580;-83
2020/12/06 06:05:55;;;;;;;52.90;40.05;;;;;;;;;;5055258;28;20389;-83
2020/12/06 06:08:25;;;;;;;49.30;40.50;;;;;;;;;;5072780;28;20398;-83
2020/12/06 06:11:17;;;;;;;51.35;40.80;;;;;;;;;;5055106;28;20359;-84
2020/12/06 06:13:48;;;;;;;46.55;38.55;;;;;;;;;;5073620;28;20455;-84
2020/12/06 06:16:15;;;;;;;49.72;38.92;;;;;;;;;;5055340;28;20548;-83
2020/12/06 06:18:41;;;;;;;48.92;39.20;;;;;;;;;;5054891;28;20398;-83
2020/12/06 06:21:07;;;;;;;44.97;36.92;;;;;;;;;;5072564;28;20358;-83
2020/12/06 06:23:33;;;;;;;43.97;36.53;;;;;;;;;;5072661;28;20357;-83
2020/12/06 06:25:59;;;;;;;42.30;34.65;;;;;;;;;;5072442;28;20389;-84
2020/12/06 06:28:26;;;;;;;47.60;38.28;;;;;;;;;;5054573;28;20461;-83
2020/12/06 06:30:54;;;;;;;45.92;37.65;;;;;;;;;;5054634;28;20404;-82
2020/12/06 06:33:22;;;;;;;52.33;41.67;;;;;;;;;;5054893;28;20385;-83
2020/12/06 06:35:48;;;;;;;48.60;39.53;;;;;;;;;;5054520;28;20405;-83
2020/12/06 06:38:14;;;;;;;50.67;40.45;;;;;;;;;;5055136;28;20374;-83
2020/12/06 06:40:40;;;;;;;52.92;42.78;;;;;;;;;;5054495;28;20473;-83
2020/12/06 06:43:07;;;;;;;54.97;42.38;;;;;;;;;;5054503;28;20397;-83
2020/12/06 06:45:45;;;;;;;52.80;42.08;;;;;;;;;;5054040;28;20390;-89
2020/12/06 06:48:16;;;;;;;58.40;44.65;;;;;;;;;;5054961;28;20416;-82
2020/12/06 06:50:42;;;;;;;63.20;47.85;;;;;;;;;;5054676;28;20362;-83
2020/12/06 06:53:09;;;;;;;64.13;48.00;;;;;;;;;;5037789;28;20378;-83
2020/12/06 06:55:47;;;;;;;61.55;46.67;;;;;;;;;;5054015;28;20400;-83
2020/12/06 06:58:15;;;;;;;57.63;45.30;;;;;;;;;;5054261;28;20367;-82
2020/12/06 07:00:41;;;;;;;58.35;45.33;;;;;;;;;;5072480;28;20365;-83
2020/12/06 07:03:12;;;;;;;57.13;43.45;;;;;;;;;;5055367;28;20366;-84
2020/12/06 07:05:38;;;;;;;104.28;72.95;;;;;;;;;;5054854;28;20433;-82
2020/12/06 07:08:15;;;;;;;60.33;46.65;;;;;;;;;;5054884;28;20378;-83
2020/12/06 07:10:42;;;;;;;53.08;42.53;;;;;;;;;;5054325;28;20717;-83
2020/12/06 07:13:08;;;;;;;61.78;47.42;;;;;;;;;;5054392;28;20373;-85
2020/12/06 07:15:34;;;;;;;57.03;44.53;;;;;;;;;;5073947;28;20354;-87
2020/12/06 07:18:00;;;;;;;56.08;43.75;;;;;;;;;;5056069;28;20398;-85
2020/12/06 07:20:27;;;;;;;60.72;47.00;;;;;;;;;;5054427;28;20358;-84
2020/12/06 07:22:54;;;;;;;59.05;45.38;;;;;;;;;;5055486;28;20370;-85
2020/12/06 07:25:20;;;;;;;56.40;44.17;;;;;;;;;;5053899;28;20404;-83
2020/12/06 07:27:47;;;;;;;56.47;44.57;;;;;;;;;;5054133;28;20427;-83
2020/12/06 07:30:15;;;;;;;55.30;44.22;;;;;;;;;;5054253;28;20378;-84
2020/12/06 07:32:41;;;;;;;57.60;45.58;;;;;;;;;;5054151;28;20372;-84
2020/12/06 07:35:09;;;;;;;52.85;43.00;;;;;;;;;;5053613;28;20382;-83
2020/12/06 07:37:35;;;;;;;49.72;41.90;;;;;;;;;;5072013;28;20445;-84
2020/12/06 07:40:04;;;;;;;46.92;39.58;;;;;;;;;;5054287;28;20363;-83
2020/12/06 07:42:30;;;;;;;49.33;39.28;;;;;;;;;;5056796;28;20362;-84
2020/12/06 07:44:58;;;;;;;44.47;37.75;;;;;;;;;;5059090;28;20386;-89
2020/12/06 07:47:24;;;;;;;44.90;37.90;;;;;;;;;;5084260;28;20362;-88
2020/12/06 07:49:51;;;;;;;40.40;34.42;;;;;;;;;;5068146;28;20366;-85
2020/12/06 07:52:18;;;;;;;40.07;32.33;;;;;;;;;;5060509;28;20366;-86
2020/12/06 07:54:51;;;;;;;39.33;33.13;;;;;;;;;;5058308;28;20370;-83
2020/12/06 07:57:18;;;;;;;42.40;33.43;;;;;;;;;;5075609;28;20358;-86
2020/12/06 07:59:44;;;;;;;40.33;32.63;;;;;;;;;;5058335;28;20366;-88
2020/12/06 08:02:11;;;;;;;41.85;33.22;;;;;;;;;;5054675;28;20369;-84
2020/12/06 08:04:37;;;;;;;39.22;32.85;;;;;;;;;;5055129;28;20401;-83
2020/12/06 08:07:10;;;;;;;39.28;32.25;;;;;;;;;;5056984;28;20378;-82
2020/12/06 08:09:42;;;;;;;37.75;32.22;;;;;;;;;;5056915;28;20366;-83
2020/12/06 08:12:09;;;;;;;38.00;30.27;;;;;;;;;;5075283;28;20367;-82
2020/12/06 08:14:35;;;;;;;35.78;29.55;;;;;;;;;;5058133;28;20440;-82
2020/12/06 08:17:01;;;;;;;35.03;28.70;;;;;;;;;;5058418;28;20857;-83
2020/12/06 08:19:29;;;;;;;34.67;29.17;;;;;;;;;;5056022;28;20381;-82
2020/12/06 08:21:58;;;;;;;32.00;27.58;;;;;;;;;;5059408;28;20368;-82
2020/12/06 08:24:25;;;;;;;34.00;27.05;;;;;;;;;;5041773;28;20388;-83
2020/12/06 08:26:52;;;;;;;32.28;26.70;;;;;;;;;;5044499;28;20412;-81
2020/12/06 08:29:19;;;;;;;33.05;26.83;;;;;;;;;;5063021;28;20436;-82
2020/12/06 08:31:45;;;;;;;34.00;26.20;;;;;;;;;;5042871;28;20360;-82
2020/12/06 08:34:16;;;;;;;32.08;26.20;;;;;;;;;;5037323;28;20429;-88
2020/12/06 08:36:43;;;;;;;29.85;24.50;;;;;;;;;;5057557;28;20383;-85
2020/12/06 08:39:19;;;;;;;29.55;24.48;;;;;;;;;;5037727;28;20368;-83
2020/12/06 08:41:45;;;;;;;29.02;24.23;;;;;;;;;;5037671;28;20375;-81
2020/12/06 08:44:11;;;;;;;27.77;24.23;;;;;;;;;;5037407;28;20415;-81
2020/12/06 08:46:38;;;;;;;26.48;23.00;;;;;;;;;;5037546;28;20365;-82
2020/12/06 08:49:15;;;;;;;27.50;22.88;;;;;;;;;;5036658;28;20400;-83
2020/12/06 08:51:47;;;;;;;27.42;23.55;;;;;;;;;;5054613;28;20359;-83
2020/12/06 08:54:13;;;;;;;27.57;23.00;;;;;;;;;;5055028;28;20364;-83
2020/12/06 08:56:40;;;;;;;29.35;22.95;;;;;;;;;;5036907;28;20378;-85
2020/12/06 08:59:07;;;;;;;27.40;22.10;;;;;;;;;;5037255;28;20882;-83
2020/12/06 09:01:34;;;;;;;24.73;20.93;;;;;;;;;;5056108;28;20382;-85
2020/12/06 09:04:00;;;;;;;24.55;20.75;;;;;;;;;;5071126;28;20695;-83
2020/12/06 09:06:26;;;;;;;24.60;20.17;;;;;;;;;;5064551;28;20382;-81
2020/12/06 09:08:52;;;;;;;22.98;20.42;;;;;;;;;;5040672;28;20384;-82
2020/12/06 09:11:19;;;;;;;24.55;21.35;;;;;;;;;;5067625;28;20446;-84
2020/12/06 09:13:46;;;;;;;25.52;21.13;;;;;;;;;;5070472;28;20364;-82
2020/12/06 09:16:18;;;;;;;22.38;19.85;;;;;;;;;;5068994;28;20370;-82
2020/12/06 09:18:44;;;;;;;22.60;20.17;;;;;;;;;;5064294;28;20704;-82
2020/12/06 09:21:10;;;;;;;24.80;19.75;;;;;;;;;;5062687;28;20376;-84
2020/12/06 09:23:36;;;;;;;23.23;19.63;;;;;;;;;;5055819;28;20724;-82
2020/12/06 09:26:04;;;;;;;22.20;18.67;;;;;;;;;;5043860;28;20384;-86
2020/12/06 09:28:32;;;;;;;22.20;18.63;;;;;;;;;;5052132;28;20402;-84
2020/12/06 09:30:58;;;;;;;22.92;18.92;;;;;;;;;;5047719;28;20465;-84
2020/12/06 09:33:24;;;;;;;20.27;18.02;;;;;;;;;;5047026;28;20418;-84
2020/12/06 09:35:50;;;;;;;21.13;18.02;;;;;;;;;;5048709;28;20474;-84
2020/12/06 09:38:17;;;;;;;22.58;19.38;;;;;;;;;;5043066;28;20392;-83
2020/12/06 09:40:43;;;;;;;21.73;18.67;;;;;;;;;;5062453;28;20420;-83
2020/12/06 09:43:09;;;;;;;23.02;18.60;;;;;;;;;;5046921;28;20940;-81
2020/12/06 09:45:35;;;;;;;22.27;19.13;;;;;;;;;;5061317;28;20764;-82
2020/12/06 09:48:01;;;;;;;22.67;18.73;;;;;;;;;;5062427;28;20383;-84
2020/12/06 09:50:29;;;;;;;20.20;18.00;;;;;;;;;;5063612;28;20431;-83
2020/12/06 09:52:55;;;;;;;19.58;17.48;;;;;;;;;;5044917;28;20395;-82
2020/12/06 09:55:21;;;;;;;20.88;17.77;;;;;;;;;;5063378;28;20382;-85
2020/12/06 09:57:47;;;;;;;19.20;17.10;;;;;;;;;;5049566;28;20972;-84
2020/12/06 10:00:14;;;;;;;20.40;17.27;;;;;;;;;;5045412;28;20907;-84
2020/12/06 10:02:40;;;;;;;21.25;17.88;;;;;;;;;;5062335;28;20472;-85
2020/12/06 10:05:07;;;;;;;20.63;16.85;;;;;;;;;;5065631;28;20402;-89
2020/12/06 10:07:33;;;;;;;21.55;17.40;;;;;;;;;;5074194;28;20382;-86
2020/12/06 10:09:59;;;;;;;19.17;17.08;;;;;;;;;;5067413;28;20399;-88
2020/12/06 10:12:25;;;;;;;20.02;17.13;;;;;;;;;;5062198;28;20472;-90
2020/12/06 10:14:51;;;;;;;18.33;16.33;;;;;;;;;;5066801;28;20392;-88
2020/12/06 10:17:18;;;;;;;19.67;16.80;;;;;;;;;;5051327;28;20393;-88
2020/12/06 10:19:46;;;;;;;19.33;16.30;;;;;;;;;;5056611;28;20872;-87
2020/12/06 10:22:12;;;;;;;19.13;15.82;;;;;;;;;;5058322;28;20799;-89
2020/12/06 10:24:38;;;;;;;19.63;15.60;;;;;;;;;;5056628;28;20473;-87
2020/12/06 10:27:04;;;;;;;17.05;15.20;;;;;;;;;;5069220;28;20385;-88
2020/12/06 10:29:30;;;;;;;17.25;14.80;;;;;;;;;;5047856;28;20377;-87
2020/12/06 10:31:58;;;;;;;20.10;15.75;;;;;;;;;;5065332;28;20414;-89
2020/12/06 10:34:25;;;;;;;17.45;15.30;;;;;;;;;;5072669;28;20386;-87
2020/12/06 10:36:52;;;;;;;17.33;15.30;;;;;;;;;;5074112;28;20409;-88
2020/12/06 10:39:22;;;;;;;17.83;15.10;;;;;;;;;;5074971;28;20396;-86
2020/12/06 10:41:49;;;;;;;18.95;15.02;;;;;;;;;;5048450;28;20446;-87
2020/12/06 10:44:15;;;;;;;19.58;15.18;;;;;;;;;;5058630;28;20396;-86
2020/12/06 10:46:41;;;;;;;18.10;14.88;;;;;;;;;;5052759;28;20771;-86
2020/12/06 10:49:09;;;;;;;18.10;15.07;;;;;;;;;;5062451;28;20382;-83
2020/12/06 10:51:35;;;;;;;17.90;14.77;;;;;;;;;;5036531;28;20473;-88
2020/12/06 10:54:08;;;;;;;18.17;15.07;;;;;;;;;;5047142;28;20381;-88
2020/12/06 10:56:35;;;;;;;17.38;14.77;;;;;;;;;;5049412;28;20397;-86
2020/12/06 10:59:01;;;;;;;19.42;15.20;;;;;;;;;;5052834;28;20360;-83
2020/12/06 11:01:30;;;;;;;18.08;14.50;;;;;;;;;;5060271;28;20452;-87
2020/12/06 11:03:56;;;;;;;16.75;14.98;;;;;;;;;;5039037;28;20471;-89
2020/12/06 11:06:31;;;;;;;17.63;14.80;;;;;;;;;;5055794;28;20370;-87
2020/12/06 11:08:58;;;;;;;16.83;14.38;;;;;;;;;;5066179;28;20478;-90
2020/12/06 11:11:24;;;;;;;18.35;14.20;;;;;;;;;;5047303;28;20389;-88
2020/12/06 11:13:51;;;;;;;15.85;14.13;;;;;;;;;;5044262;28;20372;-86
2020/12/06 11:16:20;;;;;;;18.45;15.02;;;;;;;;;;5063559;28;20437;-87
2020/12/06 11:18:47;;;;;;;17.30;14.77;;;;;;;;;;5067752;28;21000;-88
2020/12/06 11:21:18;;;;;;;15.82;14.13;;;;;;;;;;5046200;28;20388;-88
2020/12/06 11:23:46;;;;;;;15.57;13.87;;;;;;;;;;5064191;28;20435;-88
2020/12/06 11:26:13;;;;;;;15.88;14.18;;;;;;;;;;5053478;28;20395;-88
2020/12/06 11:28:39;;;;;;;16.05;13.90;;;;;;;;;;5048484;28;20864;-88
2020/12/06 11:31:05;;;;;;;17.23;14.15;;;;;;;;;;5069339;28;20844;-89
2020/12/06 11:33:31;;;;;;;15.52;13.82;;;;;;;;;;5052645;28;20387;-88
2020/12/06 11:35:57;;;;;;;17.90;14.17;;;;;;;;;;5049595;28;20429;-89
2020/12/06 11:38:24;;;;;;;16.75;13.90;;;;;;;;;;5047232;28;20432;-88
2020/12/06 11:40:51;;;;;;;16.75;14.20;;;;;;;;;;5052727;28;20404;-90
2020/12/06 11:43:17;;;;;;;17.92;13.43;;;;;;;;;;5070151;28;21088;-88
2020/12/06 11:45:43;;;;;;;15.30;12.93;;;;;;;;;;5046984;28;20761;-89
2020/12/06 11:48:09;;;;;;;20.60;14.10;;;;;;;;;;5048190;28;20868;-88
2020/12/06 11:50:35;;;;;;;16.80;13.82;;;;;;;;;;5049602;28;20378;-87
2020/12/06 11:53:01;;;;;;;16.27;13.18;;;;;;;;;;5056275;28;20374;-89
2020/12/06 11:55:28;;;;;;;14.98;13.23;;;;;;;;;;5056476;28;20386;-86
2020/12/06 11:57:56;;;;;;;14.93;13.35;;;;;;;;;;5064268;28;20788;-89
2020/12/06 12:00:22;;;;;;;16.60;13.77;;;;;;;;;;5071240;28;20370;-90
2020/12/06 12:02:49;;;;;;;16.73;13.48;;;;;;;;;;5068164;28;20398;-92
2020/12/06 12:05:15;;;;;;;16.98;14.57;;;;;;;;;;5056796;28;20398;-90
2020/12/06 12:07:42;;;;;;;16.05;13.95;;;;;;;;;;5053228;28;20402;-89
2020/12/06 12:10:08;;;;;;;16.55;13.75;;;;;;;;;;5066475;28;20392;-87
2020/12/06 12:12:35;;;;;;;16.27;13.77;;;;;;;;;;5063716;28;20368;-92
2020/12/06 12:15:01;;;;;;;15.18;13.52;;;;;;;;;;5049003;28;20731;-89
2020/12/06 12:17:29;;;;;;;17.20;13.40;;;;;;;;;;5062294;28;20379;-89
2020/12/06 12:19:55;;;;;;;15.50;13.63;;;;;;;;;;5071482;28;20366;-90
2020/12/06 12:22:22;;;;;;;15.88;12.85;;;;;;;;;;5073136;28;20373;-87
2020/12/06 12:24:48;;;;;;;16.13;13.30;;;;;;;;;;5047039;28;20434;-90
2020/12/06 12:27:14;;;;;;;15.43;13.10;;;;;;;;;;5072636;28;20361;-87
2020/12/06 12:29:40;;;;;;;17.92;13.75;;;;;;;;;;5061692;28;20360;-89
2020/12/06 12:32:06;;;;;;;15.15;13.00;;;;;;;;;;5067522;28;20937;-87
2020/12/06 12:34:33;;;;;;;15.85;13.13;;;;;;;;;;5066760;28;20366;-89
2020/12/06 12:36:59;;;;;;;15.52;13.57;;;;;;;;;;5049540;28;20389;-88
2020/12/06 12:39:25;;;;;;;16.58;13.75;;;;;;;;;;5050864;28;20370;-88
2020/12/06 12:41:51;;;;;;;16.95;13.00;;;;;;;;;;5055024;28;20379;-87
2020/12/06 12:44:19;;;;;;;15.70;13.85;;;;;;;;;;5040885;28;20399;-86
2020/12/06 12:46:45;;;;;;;17.17;13.63;;;;;;;;;;5049185;28;20378;-87
2020/12/06 12:49:11;;;;;;;17.73;14.30;;;;;;;;;;5047224;28;20382;-88
2020/12/06 12:51:37;;;;;;;16.23;13.75;;;;;;;;;;5053851;28;20711;-88
2020/12/06 12:54:03;;;;;;;15.45;13.75;;;;;;;;;;5058597;28;20445;-86
2020/12/06 12:56:30;;;;;;;15.48;13.88;;;;;;;;;;5076475;28;20411;-90
2020/12/06 12:58:56;;;;;;;17.30;14.05;;;;;;;;;;5076819;28;20433;-89
2020/12/06 13:01:23;;;;;;;15.65;13.35;;;;;;;;;;5077123;28;20386;-89
2020/12/06 13:03:51;;;;;;;15.55;13.70;;;;;;;;;;5059022;28;20389;-89
2020/12/06 13:06:22;;;;;;;17.73;14.48;;;;;;;;;;5063281;28;20398;-89
2020/12/06 13:08:51;;;;;;;15.65;13.48;;;;;;;;;;5075656;28;20363;-88
2020/12/06 13:11:22;;;;;;;16.02;13.70;;;;;;;;;;5059112;28;20366;-90
2020/12/06 13:13:48;;;;;;;15.93;13.55;;;;;;;;;;5058416;28;20854;-87
2020/12/06 13:16:14;;;;;;;16.45;13.23;;;;;;;;;;5075342;28;20710;-87
2020/12/06 13:18:40;;;;;;;15.85;12.98;;;;;;;;;;5058420;28;20374;-86
2020/12/06 13:21:06;;;;;;;15.65;12.82;;;;;;;;;;5071277;28;20837;-93
2020/12/06 13:23:33;;;;;;;14.88;13.15;;;;;;;;;;5065333;28;20736;-89
2020/12/06 13:25:59;;;;;;;15.20;13.57;;;;;;;;;;5037045;28;20400;-90
2020/12/06 13:28:25;;;;;;;15.27;13.33;;;;;;;;;;5054802;28;20451;-90
2020/12/06 13:30:51;;;;;;;15.20;12.93;;;;;;;;;;5054677;28;20854;-92
2020/12/06 13:33:17;;;;;;;15.27;13.67;;;;;;;;;;5054511;28;20405;-86
2020/12/06 13:35:43;;;;;;;14.60;12.90;;;;;;;;;;5054514;28;20376;-89
2020/12/06 13:38:09;;;;;;;15.57;13.43;;;;;;;;;;5055458;28;20857;-88
2020/12/06 13:40:35;;;;;;;16.27;13.73;;;;;;;;;;5053846;28;20430;-88
2020/12/06 13:43:01;;;;;;;16.98;14.80;;;;;;;;;;5052810;28;20369;-88
2020/12/06 13:45:27;;;;;;;17.02;14.50;;;;;;;;;;5065095;28;20405;-87
2020/12/06 13:47:53;;;;;;;17.30;14.30;;;;;;;;;;5071718;28;20378;-88
2020/12/06 13:50:21;;;;;;;17.40;14.48;;;;;;;;;;5072751;28;20848;-88
2020/12/06 13:52:47;;;;;;;18.17;14.65;;;;;;;;;;5070259;28;20374;-89
2020/12/06 13:55:13;;;;;;;16.67;13.95;;;;;;;;;;5070015;28;20505;-87
2020/12/06 13:57:39;;;;;;;16.92;14.27;;;;;;;;;;5052954;28;22175;-89
2020/12/06 14:00:05;;;;;;;16.90;13.52;;;;;;;;;;5071539;28;20388;-85
2020/12/06 14:02:31;;;;;;;17.00;14.57;;;;;;;;;;5071881;28;20377;-89
2020/12/06 14:05:06;;;;;;;16.75;14.40;;;;;;;;;;5071848;28;20404;-86
2020/12/06 14:07:33;;;;;;;17.48;14.65;;;;;;;;;;5072594;28;20378;-87
2020/12/06 14:09:59;;;;;;;18.98;15.35;;;;;;;;;;5054049;28;20370;-85
2020/12/06 14:12:28;;;;;;;19.52;15.95;;;;;;;;;;5071037;28;20420;-90
2020/12/06 14:14:55;;;;;;;18.90;15.75;;;;;;;;;;5052505;28;20382;-87